createdAt,value
2023-05-19T00:01:53.125Z,99913.19
2023-05-19T00:04:20.085Z,99916.97
2023-05-19T00:06:51.736Z,99909.63
2023-05-19T00:09:18.531Z,99907.72
2023-05-19T00:11:45.811Z,99910.88
2023-05-19T00:14:12.950Z,99903.28
2023-05-19T00:16:40.033Z,99903.31
2023-05-19T00:19:10.040Z,99904.63
2023-05-19T00:21:38.829Z,99898.63
2023-05-19T00:24:06.561Z,99902.88
2023-05-19T00:26:33.314Z,99905.31
2023-05-19T00:28:59.982Z,99898.59
2023-05-19T00:31:26.603Z,99895.63
2023-05-19T00:33:53.256Z,99891.84
2023-05-19T00:36:19.812Z,99885.47
2023-05-19T00:38:46.296Z,99891.47
2023-05-19T00:41:13.033Z,99885.88
2023-05-19T00:43:39.567Z,99882.75
2023-05-19T00:46:07.200Z,99886.72
2023-05-19T00:48:33.785Z,99879.31
2023-05-19T00:51:04.372Z,99881.66
2023-05-19T00:53:34.358Z,99873.25
2023-05-19T00:56:03.023Z,99865.56
2023-05-19T00:58:32.582Z,99868.84
2023-05-19T01:01:06.800Z,99871.97
2023-05-19T01:03:36.132Z,99876.72
2023-05-19T01:06:05.302Z,99872.59
2023-05-19T01:08:34.774Z,99876.69
2023-05-19T01:11:01.758Z,99878.84
2023-05-19T01:13:30.267Z,99874.91
2023-05-19T01:16:08.037Z,99880.66
2023-05-19T01:18:45.584Z,99878.00
2023-05-19T01:21:48.435Z,99883.75
2023-05-19T01:24:46.816Z,99879.78
2023-05-19T01:27:53.158Z,99883.22
2023-05-19T01:30:26.260Z,99881.41
2023-05-19T01:32:59.216Z,99887.38
2023-05-19T01:35:27.758Z,99887.63
2023-05-19T01:37:59.120Z,99890.25
2023-05-19T01:40:28.623Z,99886.41
2023-05-19T01:42:59.259Z,99881.41
2023-05-19T01:45:29.653Z,99882.22
2023-05-19T01:48:01.379Z,99882.97
2023-05-19T01:50:30.188Z,99888.38
2023-05-19T01:52:57.175Z,99885.06
2023-05-19T01:55:24.047Z,99878.47
2023-05-19T01:58:11.347Z,99884.66
2023-05-19T02:00:52.856Z,99876.97
2023-05-19T02:03:37.115Z,99880.38
2023-05-19T02:06:26.690Z,99883.16
2023-05-19T02:09:22.199Z,99874.63
2023-05-19T02:12:06.140Z,99876.97
2023-05-19T02:14:45.346Z,99880.38
2023-05-19T02:17:17.934Z,99873.66
2023-05-19T02:19:44.836Z,99878.09
2023-05-19T02:22:11.519Z,99875.81
2023-05-19T02:24:39.435Z,99872.44
2023-05-19T02:27:06.269Z,99870.00
2023-05-19T02:29:32.815Z,99871.22
2023-05-19T02:32:01.967Z,99878.81
2023-05-19T02:34:28.587Z,99870.53
2023-05-19T02:36:56.439Z,99868.38
2023-05-19T02:39:23.388Z,99861.41
2023-05-19T02:41:50.228Z,99858.53
2023-05-19T02:44:16.717Z,99864.44
2023-05-19T02:46:43.325Z,99869.25
2023-05-19T02:49:09.997Z,99862.88
2023-05-19T02:51:36.525Z,99869.16
2023-05-19T02:54:02.984Z,99864.22
2023-05-19T02:56:29.565Z,99870.81
2023-05-19T02:58:56.339Z,99866.03
2023-05-19T03:01:23.108Z,99864.44
2023-05-19T03:03:49.856Z,99867.22
2023-05-19T03:06:18.018Z,99871.97
2023-05-19T03:08:45.030Z,99865.53
2023-05-19T03:11:11.525Z,99862.78
2023-05-19T03:13:38.031Z,99863.72
2023-05-19T03:16:04.768Z,99865.06
2023-05-19T03:18:31.719Z,99861.34
2023-05-19T03:20:58.262Z,99862.19
2023-05-19T03:23:24.775Z,99861.94
2023-05-19T03:25:51.312Z,99863.72
2023-05-19T03:28:17.911Z,99861.09
2023-05-19T03:30:44.533Z,99860.72
2023-05-19T03:33:11.844Z,99860.59
2023-05-19T03:35:38.482Z,99856.78
2023-05-19T03:38:05.057Z,99863.97
2023-05-19T03:40:31.787Z,99852.22
2023-05-19T03:42:58.636Z,99855.81
2023-05-19T03:45:25.187Z,99858.34
2023-05-19T03:47:51.820Z,99861.00
2023-05-19T03:50:18.456Z,99858.94
2023-05-19T03:52:46.422Z,99866.38
2023-05-19T03:55:14.603Z,99863.47
2023-05-19T03:57:41.492Z,99856.16
2023-05-19T04:00:11.162Z,99854.84
2023-05-19T04:02:38.408Z,99864.34
2023-05-19T04:05:05.362Z,99862.19
2023-05-19T04:07:32.120Z,99868.06
2023-05-19T04:09:58.646Z,99869.47
2023-05-19T04:12:25.436Z,99875.75
2023-05-19T04:14:52.024Z,99881.09
2023-05-19T04:17:18.611Z,99876.22
2023-05-19T04:19:45.181Z,99877.59
2023-05-19T04:22:11.674Z,99879.81
2023-05-19T04:24:38.384Z,99873.69
2023-05-19T04:27:05.184Z,99877.16
2023-05-19T04:29:32.617Z,99883.59
2023-05-19T04:31:59.145Z,99873.09
2023-05-19T04:34:25.572Z,99882.31
2023-05-19T04:36:53.477Z,99872.38
2023-05-19T04:39:21.368Z,99883.00
2023-05-19T04:41:48.159Z,99878.84
2023-05-19T04:44:18.053Z,99879.09
2023-05-19T04:46:45.981Z,99884.59
2023-05-19T04:49:12.637Z,99887.34
2023-05-19T04:51:41.547Z,99884.59
2023-05-19T04:54:08.491Z,99880.03
2023-05-19T04:56:35.022Z,99883.75
2023-05-19T04:59:01.699Z,99887.09
2023-05-19T05:01:28.264Z,99892.47
2023-05-19T05:03:58.928Z,99884.56
2023-05-19T05:06:26.442Z,99886.50
2023-05-19T05:08:53.025Z,99878.41
2023-05-19T05:11:20.128Z,99877.22
2023-05-19T05:13:47.122Z,99881.72
2023-05-19T05:16:15.047Z,99882.03
2023-05-19T05:18:44.683Z,99874.25
2023-05-19T05:21:12.266Z,99872.41
2023-05-19T05:23:39.173Z,99875.59
2023-05-19T05:26:21.374Z,99873.72
2023-05-19T05:28:48.022Z,99881.63
2023-05-19T05:31:15.290Z,99867.53
2023-05-19T05:33:43.044Z,99873.31
2023-05-19T05:36:09.740Z,99868.81
2023-05-19T05:38:36.465Z,99876.00
2023-05-19T05:41:03.433Z,99871.38
2023-05-19T05:43:30.521Z,99871.13
2023-05-19T05:45:57.854Z,99870.03
2023-05-19T05:48:24.890Z,99877.72
2023-05-19T05:50:53.133Z,99873.13
2023-05-19T05:53:21.442Z,99870.34
2023-05-19T05:55:49.102Z,99864.59
2023-05-19T05:58:16.897Z,99865.25
2023-05-19T06:00:44.010Z,99860.41
2023-05-19T06:03:11.852Z,99862.19
2023-05-19T06:05:38.702Z,99866.94
2023-05-19T06:08:06.136Z,99870.31
2023-05-19T06:10:33.143Z,99870.59
2023-05-19T06:12:59.911Z,99873.94
2023-05-19T06:15:26.629Z,99864.19
2023-05-19T06:17:54.612Z,99870.16
2023-05-19T06:20:21.441Z,99868.78
2023-05-19T06:22:48.177Z,99854.81
2023-05-19T06:25:14.826Z,99864.41
2023-05-19T06:27:41.607Z,99870.47
2023-05-19T06:30:09.053Z,99869.75
2023-05-19T06:32:35.575Z,99866.00
2023-05-19T06:35:02.194Z,99862.22
2023-05-19T06:37:28.679Z,99864.22
2023-05-19T06:39:55.392Z,99859.00
2023-05-19T06:42:22.847Z,99867.09
2023-05-19T06:44:52.638Z,99868.16
2023-05-19T06:47:19.861Z,99854.34
2023-05-19T06:49:50.553Z,99851.84
2023-05-19T06:52:17.409Z,99857.06
2023-05-19T06:54:44.007Z,99852.22
2023-05-19T06:57:10.482Z,99855.72
2023-05-19T06:59:37.582Z,99854.00
2023-05-19T07:02:04.757Z,99850.06
2023-05-19T07:04:31.381Z,99849.81
2023-05-19T07:06:58.633Z,99856.66
2023-05-19T07:09:25.254Z,99852.63
2023-05-19T07:11:51.757Z,99856.22
2023-05-19T07:14:18.288Z,99851.53
2023-05-19T07:16:44.950Z,99859.22
2023-05-19T07:19:11.617Z,99847.25
2023-05-19T07:21:38.265Z,99855.66
2023-05-19T07:24:05.299Z,99850.44
2023-05-19T07:26:32.002Z,99846.50
2023-05-19T07:28:58.451Z,99850.22
2023-05-19T07:31:25.030Z,99843.91
2023-05-19T07:33:54.377Z,99850.09
2023-05-19T07:36:21.634Z,99848.53
2023-05-19T07:38:49.029Z,99847.47
2023-05-19T07:41:15.707Z,99844.94
2023-05-19T07:43:43.060Z,99837.03
2023-05-19T07:46:09.584Z,99841.03
2023-05-19T07:48:36.704Z,99831.50
2023-05-19T07:51:03.533Z,99830.59
2023-05-19T07:53:30.126Z,99829.97
2023-05-19T07:55:58.531Z,99828.81
2023-05-19T07:58:25.658Z,99828.34
2023-05-19T08:00:53.251Z,99830.25
2023-05-19T08:03:20.700Z,99828.06
2023-05-19T08:05:47.694Z,99828.09
2023-05-19T08:08:16.775Z,99827.44
2023-05-19T08:10:43.677Z,99829.25
2023-05-19T08:13:10.390Z,99826.22
2023-05-19T08:15:37.566Z,99828.38
2023-05-19T08:18:05.087Z,99822.88
2023-05-19T08:20:32.376Z,99827.72
2023-05-19T08:22:59.095Z,99816.53
2023-05-19T08:25:25.583Z,99818.00
2023-05-19T08:27:52.152Z,99822.19
2023-05-19T08:30:18.637Z,99813.63
2023-05-19T08:32:45.475Z,99819.19
2023-05-19T08:35:12.183Z,99831.47
2023-05-19T08:37:38.778Z,99827.72
2023-05-19T08:40:08.559Z,99827.59
2023-05-19T08:42:35.476Z,99817.03
2023-05-19T08:45:03.521Z,99809.91
2023-05-19T08:47:31.902Z,99811.03
2023-05-19T08:50:07.747Z,99802.75
2023-05-19T08:52:52.968Z,99802.97
2023-05-19T08:55:50.181Z,99794.78
2023-05-19T08:58:20.646Z,99797.38
2023-05-19T09:00:49.310Z,99782.50
2023-05-19T09:03:23.401Z,99780.25
2023-05-19T09:05:51.177Z,99787.94
2023-05-19T09:08:18.346Z,99779.34
2023-05-19T09:10:45.216Z,99770.47
2023-05-19T09:13:11.817Z,99772.97
2023-05-19T09:15:41.215Z,99784.22
2023-05-19T09:18:12.409Z,99771.41
2023-05-19T09:20:42.856Z,99774.06
2023-05-19T09:23:16.326Z,99775.44
2023-05-19T09:25:50.166Z,99771.22
2023-05-19T09:28:25.374Z,99773.09
2023-05-19T09:31:10.849Z,99756.22
2023-05-19T09:33:42.233Z,99772.47
2023-05-19T09:36:11.488Z,99763.47
2023-05-19T09:38:39.534Z,99749.63
2023-05-19T09:41:08.791Z,99748.47
2023-05-19T09:43:35.619Z,99747.84
2023-05-19T09:46:09.203Z,99749.56
2023-05-19T09:48:37.831Z,99749.59
2023-05-19T09:51:10.083Z,99747.81
2023-05-19T09:53:36.769Z,99741.28
2023-05-19T09:56:03.704Z,99740.47
2023-05-19T09:58:36.228Z,99737.16
2023-05-19T10:01:05.324Z,99745.03
2023-05-19T10:03:33.445Z,99753.09
2023-05-19T10:06:03.829Z,99738.91
2023-05-19T10:08:34.247Z,99725.69
2023-05-19T10:11:02.871Z,99732.94
2023-05-19T10:13:30.880Z,99731.44
2023-05-19T10:15:59.970Z,99724.31
2023-05-19T10:18:29.429Z,99725.09
2023-05-19T10:20:58.003Z,99717.97
2023-05-19T10:23:26.028Z,99717.38
2023-05-19T10:25:59.740Z,99720.03
2023-05-19T10:28:38.061Z,99719.47
2023-05-19T10:31:13.398Z,99706.47
2023-05-19T10:34:24.141Z,99709.91
2023-05-19T10:37:16.889Z,99702.34
2023-05-19T10:39:44.757Z,99701.22
2023-05-19T10:42:24.750Z,99700.22
2023-05-19T10:45:15.165Z,99692.13
2023-05-19T10:47:42.396Z,99691.16
2023-05-19T10:50:10.582Z,99708.59
2023-05-19T10:52:39.427Z,99704.88
2023-05-19T10:55:17.670Z,99693.03
2023-05-19T10:58:00.491Z,99695.72
2023-05-19T11:00:29.803Z,99690.22
2023-05-19T11:03:15.241Z,99691.72
2023-05-19T11:05:45.295Z,99681.41
2023-05-19T11:08:13.335Z,99680.78
2023-05-19T11:10:44.687Z,99674.66
2023-05-19T11:13:22.564Z,99679.28
2023-05-19T11:15:49.945Z,99686.13
2023-05-19T11:18:16.634Z,99680.31
2023-05-19T11:20:44.446Z,99684.84
2023-05-19T11:23:20.129Z,99688.28
2023-05-19T11:25:51.307Z,99689.56
2023-05-19T11:28:20.952Z,99678.66
2023-05-19T11:30:50.625Z,99681.50
2023-05-19T11:33:19.296Z,99690.41
2023-05-19T11:35:50.313Z,99680.06
2023-05-19T11:38:19.315Z,99681.75
2023-05-19T11:40:48.148Z,99684.59
2023-05-19T11:43:14.595Z,99675.28
2023-05-19T11:45:41.803Z,99668.75
2023-05-19T11:48:12.772Z,99673.31
2023-05-19T11:50:43.977Z,99667.88
2023-05-19T11:53:13.694Z,99655.09
2023-05-19T11:55:47.692Z,99663.34
2023-05-19T11:58:15.194Z,99659.16
2023-05-19T12:00:46.249Z,99659.03
2023-05-19T12:03:13.434Z,99645.09
2023-05-19T12:05:47.410Z,99648.50
2023-05-19T12:08:17.393Z,99654.16
2023-05-19T12:10:43.957Z,99644.75
2023-05-19T12:13:11.013Z,99636.84
2023-05-19T12:15:38.596Z,99635.31
2023-05-19T12:18:05.563Z,99631.66
2023-05-19T12:20:35.383Z,99636.75
2023-05-19T12:23:03.410Z,99634.38
2023-05-19T12:25:32.103Z,99638.50
2023-05-19T12:28:03.093Z,99636.50
2023-05-19T12:30:32.411Z,99625.59
2023-05-19T12:32:59.710Z,99630.00
2023-05-19T12:35:30.445Z,99627.19
2023-05-19T12:37:57.743Z,99614.16
2023-05-19T12:40:24.386Z,99616.72
2023-05-19T12:42:53.167Z,99619.53
2023-05-19T12:45:23.300Z,99627.09
2023-05-19T12:47:51.337Z,99627.78
2023-05-19T12:50:18.165Z,99630.41
2023-05-19T12:52:51.879Z,99625.25
2023-05-19T12:55:20.535Z,99621.22
2023-05-19T12:57:57.943Z,99617.66
2023-05-19T13:00:28.856Z,99611.41
2023-05-19T13:03:16.949Z,99626.47
2023-05-19T13:05:48.175Z,99612.34
2023-05-19T13:08:18.242Z,99603.56
2023-05-19T13:10:46.874Z,99608.84
2023-05-19T13:13:13.983Z,99604.84
2023-05-19T13:15:44.513Z,99603.91
2023-05-19T13:18:13.305Z,99597.63
2023-05-19T13:20:42.696Z,99599.81
2023-05-19T13:23:11.768Z,99597.19
2023-05-19T13:25:39.120Z,99601.81
2023-05-19T13:28:06.638Z,99600.09
2023-05-19T13:30:36.214Z,99607.13
2023-05-19T13:33:03.222Z,99589.97
2023-05-19T13:35:31.269Z,99585.97
2023-05-19T13:37:58.032Z,99592.94
2023-05-19T13:40:25.938Z,99579.81
2023-05-19T13:42:52.661Z,99578.66
2023-05-19T13:45:19.347Z,99585.69
2023-05-19T13:47:45.794Z,99581.59
2023-05-19T13:50:12.481Z,99576.34
2023-05-19T13:52:39.205Z,99580.31
2023-05-19T13:55:07.697Z,99580.78
2023-05-19T13:57:34.339Z,99587.09
2023-05-19T14:00:03.276Z,99585.00
2023-05-19T14:02:30.958Z,99583.34
2023-05-19T14:04:57.971Z,99582.44
2023-05-19T14:07:25.319Z,99573.72
2023-05-19T14:09:52.287Z,99569.78
2023-05-19T14:12:19.340Z,99574.97
2023-05-19T14:14:48.956Z,99569.91
2023-05-19T14:17:15.692Z,99574.63
2023-05-19T14:19:42.306Z,99572.63
2023-05-19T14:22:09.006Z,99580.41
2023-05-19T14:24:35.740Z,99577.78
2023-05-19T14:27:02.274Z,99583.66
2023-05-19T14:29:31.022Z,99572.50
2023-05-19T14:31:57.878Z,99574.00
2023-05-19T14:34:24.614Z,99576.41
2023-05-19T14:36:51.274Z,99577.34
2023-05-19T14:39:17.784Z,99578.00
2023-05-19T14:41:44.307Z,99572.72
2023-05-19T14:44:10.798Z,99563.69
2023-05-19T14:46:37.406Z,99557.66
2023-05-19T14:49:06.291Z,99547.38
2023-05-19T14:51:32.758Z,99560.34
2023-05-19T14:54:00.303Z,99549.94
2023-05-19T14:56:26.949Z,99551.66
2023-05-19T14:58:53.504Z,99554.09
2023-05-19T15:01:20.085Z,99556.50
2023-05-19T15:03:46.815Z,99551.22
2023-05-19T15:06:13.461Z,99556.47
2023-05-19T15:08:41.351Z,99551.97
2023-05-19T15:11:08.150Z,99552.38
2023-05-19T15:13:34.727Z,99547.66
2023-05-19T15:16:16.234Z,99547.88
2023-05-19T15:18:44.566Z,99546.34
2023-05-19T15:21:11.427Z,99542.59
2023-05-19T15:23:38.139Z,99545.97
2023-05-19T15:26:04.983Z,99536.72
2023-05-19T15:28:32.076Z,99544.63
2023-05-19T15:30:58.632Z,99545.53
2023-05-19T15:33:25.178Z,99546.50
2023-05-19T15:35:52.163Z,99538.16
2023-05-19T15:38:20.175Z,99536.97
2023-05-19T15:40:47.250Z,99527.69
2023-05-19T15:43:14.467Z,99526.44
2023-05-19T15:45:41.125Z,99545.00
2023-05-19T15:48:08.152Z,99535.63
2023-05-19T15:50:35.151Z,99523.44
2023-05-19T15:53:02.136Z,99533.50
2023-05-19T15:55:28.826Z,99531.78
2023-05-19T15:57:55.335Z,99533.25
2023-05-19T16:00:21.831Z,99531.56
2023-05-19T16:02:48.357Z,99526.97
2023-05-19T16:05:14.974Z,99537.97
2023-05-19T16:07:42.147Z,99527.47
2023-05-19T16:10:09.276Z,99534.63
2023-05-19T16:12:36.884Z,99525.94
2023-05-19T16:15:04.058Z,99522.44
2023-05-19T16:17:30.793Z,99524.19
2023-05-19T16:19:57.413Z,99516.97
2023-05-19T16:22:24.796Z,99528.09
2023-05-19T16:24:52.308Z,99523.59
2023-05-19T16:27:19.090Z,99513.50
2023-05-19T16:29:45.917Z,99518.16
2023-05-19T16:32:13.103Z,99517.56
2023-05-19T16:34:40.054Z,99523.44
2023-05-19T16:37:07.761Z,99518.78
2023-05-19T16:39:36.460Z,99524.28
2023-05-19T16:42:04.487Z,99516.56
2023-05-19T16:44:31.134Z,99516.25
2023-05-19T16:46:57.751Z,99515.41
2023-05-19T16:49:24.310Z,99515.69
2023-05-19T16:51:52.705Z,99522.41
2023-05-19T16:54:19.217Z,99512.28
2023-05-19T16:56:46.131Z,99513.16
2023-05-19T16:59:12.659Z,99521.97
2023-05-19T17:01:39.272Z,99514.59
2023-05-19T17:04:05.795Z,99515.69
2023-05-19T17:06:32.344Z,99517.31
2023-05-19T17:08:59.030Z,99518.59
2023-05-19T17:11:27.138Z,99527.72
2023-05-19T17:13:53.777Z,99526.09
2023-05-19T17:16:20.456Z,99526.25
2023-05-19T17:18:47.921Z,99529.97
2023-05-19T17:21:14.664Z,99526.00
2023-05-19T17:23:41.845Z,99525.84
2023-05-19T17:26:08.823Z,99527.13
2023-05-19T17:28:35.594Z,99538.97
2023-05-19T17:31:11.307Z,99535.00
2023-05-19T17:33:38.569Z,99526.75
2023-05-19T17:36:06.819Z,99521.16
2023-05-19T17:38:34.245Z,99535.63
2023-05-19T17:41:02.389Z,99533.41
2023-05-19T17:43:29.039Z,99537.59
2023-05-19T17:45:55.711Z,99535.72
2023-05-19T17:48:22.332Z,99533.66
2023-05-19T17:50:49.422Z,99529.56
2023-05-19T17:53:16.533Z,99531.41
2023-05-19T17:55:51.943Z,99531.44
2023-05-19T17:58:19.674Z,99528.97
2023-05-19T18:00:46.720Z,99528.78
2023-05-19T18:03:13.950Z,99533.91
2023-05-19T18:05:43.169Z,99532.69
2023-05-19T18:08:10.641Z,99530.03
2023-05-19T18:10:40.804Z,99536.22
2023-05-19T18:13:10.039Z,99538.69
2023-05-19T18:15:37.219Z,99532.91
2023-05-19T18:18:05.706Z,99533.75
2023-05-19T18:20:33.708Z,99531.88
2023-05-19T18:23:00.951Z,99533.53
2023-05-19T18:25:27.472Z,99527.75
2023-05-19T18:27:55.819Z,99541.19
2023-05-19T18:30:23.786Z,99545.94
2023-05-19T18:32:50.411Z,99542.84
2023-05-19T18:35:17.078Z,99540.78
2023-05-19T18:37:43.676Z,99543.28
2023-05-19T18:40:10.815Z,99545.53
2023-05-19T18:42:37.674Z,99550.09
2023-05-19T18:45:05.065Z,99543.47
2023-05-19T18:47:31.689Z,99548.81
2023-05-19T18:49:58.191Z,99552.72
2023-05-19T18:52:26.559Z,99551.06
2023-05-19T18:54:53.404Z,99559.91
2023-05-19T18:57:20.423Z,99560.31
2023-05-19T18:59:47.010Z,99563.22
2023-05-19T19:02:13.523Z,99560.56
2023-05-19T19:04:40.022Z,99565.31
2023-05-19T19:07:06.620Z,99566.47
2023-05-19T19:09:33.148Z,99568.34
2023-05-19T19:11:59.696Z,99568.59
2023-05-19T19:14:26.291Z,99583.03
2023-05-19T19:16:52.925Z,99577.56
2023-05-19T19:19:19.613Z,99582.13
2023-05-19T19:21:46.251Z,99573.41
2023-05-19T19:24:13.790Z,99576.25
2023-05-19T19:26:40.448Z,99584.66
2023-05-19T19:29:07.035Z,99581.94
2023-05-19T19:31:33.649Z,99583.19
2023-05-19T19:34:03.547Z,99581.09
2023-05-19T19:36:30.063Z,99589.03
2023-05-19T19:38:56.652Z,99591.97
2023-05-19T19:41:23.206Z,99593.50
2023-05-19T19:43:50.885Z,99601.19
2023-05-19T19:46:17.505Z,99594.69
2023-05-19T19:48:44.256Z,99601.84
2023-05-19T19:51:10.745Z,99600.88
2023-05-19T19:53:37.243Z,99608.22
2023-05-19T19:56:04.927Z,99601.28
2023-05-19T19:58:31.624Z,99603.44
2023-05-19T20:01:02.037Z,99605.81
2023-05-19T20:03:29.636Z,99608.84
2023-05-19T20:05:57.102Z,99605.22
2023-05-19T20:08:25.346Z,99603.63
2023-05-19T20:10:52.686Z,99605.13
2023-05-19T20:13:19.406Z,99612.69
2023-05-19T20:15:47.224Z,99608.84
2023-05-19T20:18:14.407Z,99611.25
2023-05-19T20:20:41.769Z,99606.97
2023-05-19T20:23:08.786Z,99605.66
2023-05-19T20:25:53.712Z,99613.84
2023-05-19T20:28:25.785Z,99607.50
2023-05-19T20:30:52.447Z,99608.69
2023-05-19T20:33:19.014Z,99613.50
2023-05-19T20:35:45.791Z,99612.06
2023-05-19T20:38:12.315Z,99614.94
2023-05-19T20:40:38.838Z,99617.91
2023-05-19T20:43:05.670Z,99613.91
2023-05-19T20:45:32.512Z,99612.16
2023-05-19T20:47:59.674Z,99611.00
2023-05-19T20:50:26.209Z,99612.22
2023-05-19T20:52:52.686Z,99609.97
2023-05-19T20:55:19.258Z,99611.84
2023-05-19T20:57:45.842Z,99611.00
2023-05-19T21:00:13.094Z,99611.78
2023-05-19T21:02:39.694Z,99610.63
2023-05-19T21:05:06.726Z,99616.66
2023-05-19T21:07:33.274Z,99610.06
2023-05-19T21:09:59.830Z,99612.88
2023-05-19T21:12:28.835Z,99604.97
2023-05-19T21:14:55.376Z,99610.19
2023-05-19T21:17:21.904Z,99609.59
2023-05-19T21:19:49.171Z,99614.63
2023-05-19T21:22:17.498Z,99613.59
2023-05-19T21:24:44.143Z,99623.84
2023-05-19T21:27:10.592Z,99615.56
2023-05-19T21:29:37.108Z,99616.19
2023-05-19T21:32:03.944Z,99618.38
2023-05-19T21:34:30.447Z,99620.19
2023-05-19T21:36:56.977Z,99617.59
2023-05-19T21:39:23.453Z,99613.09
2023-05-19T21:41:51.187Z,99617.94
2023-05-19T21:44:17.818Z,99619.31
2023-05-19T21:46:44.324Z,99621.63
2023-05-19T21:49:10.812Z,99618.81
2023-05-19T21:51:37.365Z,99618.94
2023-05-19T21:54:03.966Z,99620.72
2023-05-19T21:56:30.529Z,99609.59
2023-05-19T21:58:57.106Z,99620.47
2023-05-19T22:01:23.684Z,99621.88
2023-05-19T22:03:50.368Z,99613.81
2023-05-19T22:06:16.863Z,99615.69
2023-05-19T22:08:43.415Z,99614.81
2023-05-19T22:11:09.984Z,99612.66
2023-05-19T22:13:40.889Z,99612.16
2023-05-19T22:16:08.414Z,99613.19
2023-05-19T22:18:35.063Z,99611.94
2023-05-19T22:21:01.658Z,99601.91
2023-05-19T22:23:28.248Z,99603.06
2023-05-19T22:25:54.779Z,99604.56
2023-05-19T22:28:21.336Z,99596.38
2023-05-19T22:30:47.845Z,99597.91
2023-05-19T22:33:14.662Z,99607.41
2023-05-19T22:35:42.471Z,99600.75
2023-05-19T22:38:10.616Z,99602.91
2023-05-19T22:40:37.647Z,99596.56
2023-05-19T22:43:04.576Z,99591.91
2023-05-19T22:45:32.231Z,99599.25
2023-05-19T22:47:58.879Z,99588.75
2023-05-19T22:50:25.719Z,99596.25
2023-05-19T22:52:52.247Z,99589.44
2023-05-19T22:55:18.969Z,99588.09
2023-05-19T22:57:45.586Z,99587.44
2023-05-19T23:00:14.287Z,99584.75
2023-05-19T23:02:41.962Z,99583.94
2023-05-19T23:05:08.875Z,99586.41
2023-05-19T23:07:35.431Z,99585.13
2023-05-19T23:10:03.413Z,99581.59
2023-05-19T23:12:29.986Z,99586.38
2023-05-19T23:14:56.488Z,99586.28
2023-05-19T23:17:22.969Z,99589.25
2023-05-19T23:19:49.542Z,99585.44
2023-05-19T23:22:16.020Z,99582.09
2023-05-19T23:24:42.470Z,99586.22
2023-05-19T23:27:08.962Z,99581.28
2023-05-19T23:29:35.439Z,99584.41
2023-05-19T23:32:02.053Z,99580.09
2023-05-19T23:34:28.564Z,99580.44
2023-05-19T23:36:55.075Z,99571.78
2023-05-19T23:39:22.042Z,99580.28
2023-05-19T23:41:48.549Z,99579.59
2023-05-19T23:44:15.055Z,99578.25
2023-05-19T23:46:41.874Z,99581.78
2023-05-19T23:49:08.442Z,99570.78
2023-05-19T23:51:34.965Z,99569.75
2023-05-19T23:54:01.488Z,99568.59
2023-05-19T23:56:28.056Z,99567.78
2023-05-19T23:58:54.586Z,99568.13
